HPX weather

Plaza Scotiabank Heliport
Miguel Hidalgo, Ciudad de México, Mexico

Public forecast

Using degrees Celsius for public forecast. Weather courtesy of forecast.io.

Closest aviation weather report (METAR) to Plaza Scotiabank Heliport

Closest report is Licenciado Benito Juarez International Airport, 7.4 nm (13.8 km) E. Retrieved 2019/12/09 16:50 UTC (1 hour ago):

MMMX 091650Z 14005KT 5SM SKC 20/02 A3034 NOSIG RMK HZY

Closest aviation forecast (TAF) to Plaza Scotiabank Heliport

Closest forecast is Licenciado Benito Juarez International Airport, 7.4 nm (13.8 km) E. Retrieved 2019/12/09 12:14 UTC (6 hours ago):

TAF MMMX 091107Z 0912/1018 08005KT P6SM SKC TX24/0921Z TN07/0912Z FM091800 23012KT P6SM SCT250 FM100600 32005KT P6SM SKC FM101700 23012KT P6SM SCT250